Terminal Aerodrome Forecast
Issued by NWS

Home | Current Version | Previous Version | Text Only | Print | Product List | Glossary On
Versions: 1 2 3 4 5 6 7 8 9 10 11 12 13 14 15 16 17
350
FTUS43 KOAX 281748
TAFBFF
TAF
KBFF 281748Z 2818/2918 12008KT P6SM SCT090
     FM282200 09010KT P6SM VCTS BKN050CB BKN100
     FM290300 10006KT P6SM SCT100
     FM291100 VRB04KT P6SM SCT015 BKN025
     FM291600 15007KT P6SM SCT060=

USA.gov is the U.S. government's official web portal to all federal, state and local government web resources and services.